CSCL Long Beach — VRCZ7 — position and weather

sailwx.info

Track history (hours):
 
Tides and Currents Weather Stations Pressure Air Temp Water Temp Dewpoint Dewpoint Depression Visibility Wind Speed Wind Dir Waves Ship Positions

CSCL Long Beach

Last reported at 2016-Jun-21 17:23 UTC. Time now 2016-Jul-01 02:38 UTC.
Position N 34°58' W 129°52'.
Warning: this ship's position is 9 days out of date.

Length 336.7 m; beam 45.6 m; draft 15 m.

Type: Ship. MMSI: 477883900.

Date/timePositionNaut miles runAvg speedWind from/ knotsBaromVisibWave heightAir tempDewpointWater temp
2016-Jun-21 17:23N 34°58' W 129°52'1718.9
2016-Jun-21 16:28N 34°48' W 129°34'1918.9
2016-Jun-21 15:29N 34°37' W 129°16'1718.8
2016-Jun-21 14:33N 34°27' W 128°59'4018.7
2016-Jun-21 12:24N 34°03' W 128°20'1618.6
2016-Jun-21 11:34N 33°54' W 128°04'1918.5
2016-Jun-21 10:33N 33°43' W 127°46'1818.4
2016-Jun-21 09:34N 33°32' W 127°28'1918.5
2016-Jun-21 08:33N 33°21' W 127°10'1818.3
2016-Jun-21 07:34N 33°11' W 126°53'3618.0
2016-Jun-21 05:34N 32°49' W 126°18'1818.1
2016-Jun-21 04:33N 32°39' W 126°01'1818.0
2016-Jun-21 03:34N 32°28' W 125°44'1818.0
2016-Jun-21 02:34N 32°18' W 125°26'1818.1
2016-Jun-21 01:34N 32°07' W 125°09'1918.3
2016-Jun-21 00:32N 31°55' W 124°51'1818.2
2016-Jun-20 23:34N 31°45' W 124°35'1918.9
2016-Jun-20 22:34N 31°33' W 124°18'1919.2
2016-Jun-20 21:34N 31°21' W 124°00'1919.3
2016-Jun-20 20:34N 31°09' W 123°42'1919.1
2016-Jun-20 19:34N 30°57' W 123°25'1919.2
2016-Jun-20 18:34N 30°46' W 123°07'1919.1
2016-Jun-20 17:34N 30°34' W 122°49'1918.9
2016-Jun-20 16:33N 30°22' W 122°32'1918.8
2016-Jun-20 15:34N 30°10' W 122°15'1918.8
2016-Jun-20 14:34N 29°59' W 121°58'1919.0
2016-Jun-20 13:33N 29°47' W 121°41'1919.2
2016-Jun-20 12:34N 29°36' W 121°23'1919.1
2016-Jun-20 11:33N 29°25' W 121°05'1717.4
2016-Jun-20 10:34N 29°13' W 120°50'1919.0
2016-Jun-20 09:34N 29°01' W 120°33'1919.0
2016-Jun-20 08:34N 28°50' W 120°16'1919.1
2016-Jun-20 07:34N 28°38' W 119°59'1919.1
2016-Jun-20 06:34N 28°26' W 119°42'1919.1
2016-Jun-20 05:34N 28°15' W 119°24'1919.0
2016-Jun-20 04:34N 28°03' W 119°08'1918.8
2016-Jun-20 03:33N 27°52' W 118°51'1919.0
2016-Jun-20 02:33N 27°40' W 118°34'2018.8
2016-Jun-20 01:31N 27°28' W 118°16'1818.8
2016-Jun-20 00:34N 27°17' W 118°01'1918.8
2016-Jun-19 23:34N 27°05' W 117°44'1918.9
2016-Jun-19 22:34N 26°54' W 117°27'12319.1
2016-Jun-19 16:06N 25°38' W 115°38'1119.5
2016-Jun-19 15:34N 25°32' W 115°29'2019.7
2016-Jun-19 14:34N 25°19' W 115°12'  
Track history (hours):
 
Tides and Currents Weather Stations Pressure Air Temp Water Temp Dewpoint Dewpoint Depression Visibility Wind Speed Wind Dir Waves Ship Positions

CSCL Long Beach

Last reported at 2016-Jun-21 17:23 UTC. Time now 2016-Jul-01 02:38 UTC.
Position N 34°58' W 129°52'.
Warning: this ship's position is 9 days out of date.

Length 336.7 m; beam 45.6 m; draft 15 m.

Type: Ship. MMSI: 477883900.

Date/timePositionNaut miles runAvg speedWind from/ knotsBaromVisibWave heightAir tempDewpointWater temp
2016-Jun-21 17:23N 34°58' W 129°52'1718.9
2016-Jun-21 16:28N 34°48' W 129°34'1918.9
2016-Jun-21 15:29N 34°37' W 129°16'1718.8
2016-Jun-21 14:33N 34°27' W 128°59'4018.7
2016-Jun-21 12:24N 34°03' W 128°20'1618.6
2016-Jun-21 11:34N 33°54' W 128°04'1918.5
2016-Jun-21 10:33N 33°43' W 127°46'1818.4
2016-Jun-21 09:34N 33°32' W 127°28'1918.5
2016-Jun-21 08:33N 33°21' W 127°10'1818.3
2016-Jun-21 07:34N 33°11' W 126°53'3618.0
2016-Jun-21 05:34N 32°49' W 126°18'1818.1
2016-Jun-21 04:33N 32°39' W 126°01'1818.0
2016-Jun-21 03:34N 32°28' W 125°44'1818.0
2016-Jun-21 02:34N 32°18' W 125°26'1818.1
2016-Jun-21 01:34N 32°07' W 125°09'1918.3
2016-Jun-21 00:32N 31°55' W 124°51'1818.2
2016-Jun-20 23:34N 31°45' W 124°35'1918.9
2016-Jun-20 22:34N 31°33' W 124°18'1919.2
2016-Jun-20 21:34N 31°21' W 124°00'1919.3
2016-Jun-20 20:34N 31°09' W 123°42'1919.1
2016-Jun-20 19:34N 30°57' W 123°25'1919.2
2016-Jun-20 18:34N 30°46' W 123°07'1919.1
2016-Jun-20 17:34N 30°34' W 122°49'1918.9
2016-Jun-20 16:33N 30°22' W 122°32'1918.8
2016-Jun-20 15:34N 30°10' W 122°15'1918.8
2016-Jun-20 14:34N 29°59' W 121°58'1919.0
2016-Jun-20 13:33N 29°47' W 121°41'1919.2
2016-Jun-20 12:34N 29°36' W 121°23'1919.1
2016-Jun-20 11:33N 29°25' W 121°05'1717.4
2016-Jun-20 10:34N 29°13' W 120°50'1919.0
2016-Jun-20 09:34N 29°01' W 120°33'1919.0
2016-Jun-20 08:34N 28°50' W 120°16'1919.1
2016-Jun-20 07:34N 28°38' W 119°59'1919.1
2016-Jun-20 06:34N 28°26' W 119°42'1919.1
2016-Jun-20 05:34N 28°15' W 119°24'1919.0
2016-Jun-20 04:34N 28°03' W 119°08'1918.8
2016-Jun-20 03:33N 27°52' W 118°51'1919.0
2016-Jun-20 02:33N 27°40' W 118°34'2018.8
2016-Jun-20 01:31N 27°28' W 118°16'1818.8
2016-Jun-20 00:34N 27°17' W 118°01'1918.8
2016-Jun-19 23:34N 27°05' W 117°44'1918.9
2016-Jun-19 22:34N 26°54' W 117°27'12319.1
2016-Jun-19 16:06N 25°38' W 115°38'1119.5
2016-Jun-19 15:34N 25°32' W 115°29'2019.7
2016-Jun-19 14:34N 25°19' W 115°12'  

Dump ship's entire track history